Time;durP1;ratioP1;P1;durP2;ratioP2;P2;SDS_P1;SDS_P2;PMS_P1;PMS_P2;Temp;Humidity;BMP_temperature;BMP_pressure;BME280_temperature;BME280_humidity;BME280_pressure;Samples;Min_cycle;Max_cycle;Signal;HPM_P1;HPM_P2
2023/07/09 06:19:49;;;;;;;7.30;5.93;;;;;;;;;;6094948;22;1502120;-83
2023/07/09 08:17:28;;;;;;;8.50;6.67;;;;;;;;;;6096140;23;20037;-93
2023/07/09 08:19:54;;;;;;;10.63;6.20;;;;;;;;;;6103060;23;20093;-96
2023/07/09 08:22:21;;;;;;;9.27;5.95;;;;;;;;;;6081193;23;20010;-96
2023/07/09 08:24:47;;;;;;;8.60;6.53;;;;;;;;;;6077519;23;20007;-94
2023/07/09 08:27:14;;;;;;;9.07;6.75;;;;;;;;;;6075790;23;20011;-94
2023/07/09 08:29:41;;;;;;;6.90;6.13;;;;;;;;;;6076004;23;20046;-90
2023/07/09 08:32:07;;;;;;;7.72;5.75;;;;;;;;;;6076081;23;20006;-92
2023/07/09 08:34:33;;;;;;;8.20;6.35;;;;;;;;;;6079848;23;20006;-94
2023/07/09 08:36:58;;;;;;;8.30;6.72;;;;;;;;;;6079429;23;20006;-94
2023/07/09 08:39:24;;;;;;;7.35;6.13;;;;;;;;;;6078441;23;20006;-93
2023/07/09 08:42:11;;;;;;;8.07;5.72;;;;;;;;;;6078475;23;20089;-93
2023/07/09 08:44:55;;;;;;;8.80;6.13;;;;;;;;;;6105475;23;20011;-96
2023/07/09 08:47:46;;;;;;;9.02;6.20;;;;;;;;;;6079130;23;20438;-91
2023/07/09 08:50:16;;;;;;;7.75;6.15;;;;;;;;;;6083206;23;20501;-94
2023/07/09 08:52:44;;;;;;;9.20;6.82;;;;;;;;;;6084943;23;20005;-94
2023/07/09 08:55:15;;;;;;;7.90;6.20;;;;;;;;;;6062290;23;20010;-95
2023/07/09 08:57:44;;;;;;;6.63;5.75;;;;;;;;;;6079902;23;20006;-83
2023/07/09 09:00:34;;;;;;;6.85;6.15;;;;;;;;;;6099301;23;20006;-82
2023/07/09 09:03:07;;;;;;;8.25;6.10;;;;;;;;;;6098914;23;20430;-84
2023/07/09 09:05:39;;;;;;;11.35;6.70;;;;;;;;;;6099150;23;20012;-83
2023/07/09 09:08:13;;;;;;;7.68;6.60;;;;;;;;;;6098985;23;20312;-82
2023/07/09 09:10:48;;;;;;;7.45;6.50;;;;;;;;;;6099040;23;20010;-82
2023/07/09 09:13:16;;;;;;;9.88;6.28;;;;;;;;;;6099187;23;20334;-81
2023/07/09 09:15:45;;;;;;;8.60;6.80;;;;;;;;;;6099413;23;20007;-83
2023/07/09 09:18:17;;;;;;;;;;;;;;;;;;6099403;23;20081;-83
2023/07/09 09:20:43;;;;;;;10.43;7.15;;;;;;;;;;6099210;23;20277;-84
2023/07/09 09:23:09;;;;;;;8.40;6.85;;;;;;;;;;6099325;23;20061;-86
2023/07/09 09:25:39;;;;;;;6.63;5.90;;;;;;;;;;6073255;23;20006;-84
2023/07/09 09:28:05;;;;;;;8.75;6.07;;;;;;;;;;6098796;23;20006;-84
2023/07/09 09:30:30;;;;;;;9.05;6.72;;;;;;;;;;6073372;23;20434;-83
2023/07/09 09:33:08;;;;;;;9.07;7.50;;;;;;;;;;6098802;23;20009;-85
2023/07/09 09:35:36;;;;;;;9.40;7.00;;;;;;;;;;6098992;23;20366;-83
2023/07/09 09:38:09;;;;;;;8.02;6.70;;;;;;;;;;6099193;23;20030;-89
2023/07/09 09:40:35;;;;;;;8.32;6.30;;;;;;;;;;6098907;23;20013;-88
2023/07/09 09:43:01;;;;;;;8.10;6.75;;;;;;;;;;6099421;23;20002;-90
2023/07/09 09:45:33;;;;;;;9.27;7.20;;;;;;;;;;6099447;23;20445;-88
2023/07/09 09:48:01;;;;;;;9.73;7.20;;;;;;;;;;6098705;23;20002;-90
2023/07/09 09:50:32;;;;;;;7.60;6.77;;;;;;;;;;6073970;23;20430;-88
2023/07/09 09:52:59;;;;;;;9.15;7.55;;;;;;;;;;6073439;23;20014;-87
2023/07/09 09:55:28;;;;;;;12.85;7.45;;;;;;;;;;6098585;23;20014;-88
2023/07/09 09:57:55;;;;;;;9.70;7.05;;;;;;;;;;6099006;23;20042;-90
2023/07/09 10:00:25;;;;;;;10.80;7.32;;;;;;;;;;6099153;23;20061;-89
2023/07/09 10:02:50;;;;;;;12.73;7.30;;;;;;;;;;6073169;23;20014;-85
2023/07/09 10:05:30;;;;;;;9.40;7.18;;;;;;;;;;6099067;23;20042;-90
2023/07/09 12:23:40;;;;;;;14.73;8.20;;;;;;;;;;6127761;23;20009;-87
2023/07/09 12:26:06;;;;;;;8.63;6.45;;;;;;;;;;6156525;23;20599;-88
2023/07/09 12:28:32;;;;;;;8.73;6.25;;;;;;;;;;6155947;23;20086;-90
2023/07/09 12:30:57;;;;;;;7.30;6.32;;;;;;;;;;6156770;23;19997;-88
2023/07/09 12:33:25;;;;;;;7.72;6.03;;;;;;;;;;6156518;23;20009;-89
2023/07/09 12:36:03;;;;;;;8.23;5.78;;;;;;;;;;6157428;23;20004;-90
2023/07/09 12:38:40;;;;;;;9.00;6.07;;;;;;;;;;6156716;23;20005;-85
2023/07/09 12:41:14;;;;;;;8.85;6.10;;;;;;;;;;6156475;23;20005;-88
2023/07/09 12:43:39;;;;;;;6.43;5.35;;;;;;;;;;6156531;23;20433;-88
2023/07/09 12:46:05;;;;;;;8.48;6.15;;;;;;;;;;6156631;23;20008;-88
2023/07/09 12:48:31;;;;;;;8.73;6.20;;;;;;;;;;6154923;23;19998;-90
2023/07/09 12:50:59;;;;;;;7.60;6.32;;;;;;;;;;6156218;23;20013;-89
2023/07/09 12:53:27;;;;;;;8.02;6.63;;;;;;;;;;6156575;23;20328;-89
2023/07/09 12:55:56;;;;;;;8.43;6.68;;;;;;;;;;6155225;23;20012;-89
2023/07/09 12:58:24;;;;;;;8.52;6.55;;;;;;;;;;6156606;23;20006;-89
2023/07/09 13:00:53;;;;;;;7.60;6.60;;;;;;;;;;6155725;23;20373;-88
2023/07/09 13:03:29;;;;;;;8.18;6.57;;;;;;;;;;6156612;23;20006;-89
2023/07/09 13:05:58;;;;;;;9.10;6.70;;;;;;;;;;6158284;23;20052;-89
2023/07/09 13:08:25;;;;;;;9.95;7.07;;;;;;;;;;6158921;23;20421;-89
2023/07/09 13:10:51;;;;;;;8.50;6.85;;;;;;;;;;6156516;23;20012;-90
2023/07/09 13:13:19;;;;;;;10.80;6.68;;;;;;;;;;6158420;23;20076;-90
2023/07/09 13:15:59;;;;;;;9.77;6.67;;;;;;;;;;6158450;23;20487;-90
2023/07/09 13:18:25;;;;;;;10.13;6.35;;;;;;;;;;6158826;23;20005;-91
2023/07/09 13:20:53;;;;;;;9.13;6.70;;;;;;;;;;6157262;23;20092;-87
2023/07/09 13:23:27;;;;;;;7.10;6.40;;;;;;;;;;6157930;23;20017;-81
2023/07/09 13:25:55;;;;;;;8.00;6.60;;;;;;;;;;6157832;23;20325;-83
2023/07/09 13:28:31;;;;;;;7.65;6.07;;;;;;;;;;6157736;23;20437;-82
2023/07/09 13:31:00;;;;;;;9.10;6.88;;;;;;;;;;6157680;23;20080;-82
2023/07/09 13:33:26;;;;;;;8.50;6.18;;;;;;;;;;6157631;23;20033;-84
2023/07/09 13:35:53;;;;;;;8.00;6.18;;;;;;;;;;6157853;23;20057;-83
2023/07/09 13:38:21;;;;;;;8.18;6.13;;;;;;;;;;6157583;23;20001;-83
2023/07/09 13:40:48;;;;;;;7.78;6.57;;;;;;;;;;6157701;23;20085;-84
2023/07/09 13:43:19;;;;;;;8.55;6.18;;;;;;;;;;6157410;23;20009;-83
2023/07/09 13:45:44;;;;;;;6.65;5.70;;;;;;;;;;6157298;23;20036;-84
2023/07/09 13:48:20;;;;;;;9.45;6.28;;;;;;;;;;6157307;23;20010;-83
2023/07/09 13:50:48;;;;;;;10.02;5.90;;;;;;;;;;6157397;23;20009;-84
2023/07/09 13:53:17;;;;;;;6.70;5.70;;;;;;;;;;6157499;23;20028;-83
2023/07/09 13:55:43;;;;;;;7.43;6.57;;;;;;;;;;6157358;23;20002;-82
2023/07/09 13:58:11;;;;;;;6.72;5.82;;;;;;;;;;6157763;23;20013;-86
2023/07/09 14:00:40;;;;;;;7.38;5.93;;;;;;;;;;6161217;23;20001;-94
2023/07/09 14:03:19;;;;;;;8.95;6.65;;;;;;;;;;6157662;23;20101;-90
2023/07/09 14:05:45;;;;;;;;;;;;;;;;;;6158421;23;20421;-90
2023/07/09 17:36:46;;;;;;;7.25;5.82;;;;;;;;;;6154121;23;20013;-88
2023/07/09 17:39:21;;;;;;;7.20;5.68;;;;;;;;;;6156288;23;20013;-87
2023/07/09 17:41:47;;;;;;;6.32;5.72;;;;;;;;;;6157758;23;20006;-91
2023/07/09 17:44:20;;;;;;;7.97;5.22;;;;;;;;;;6155923;23;20061;-86
2023/07/09 20:12:44;;;;;;;6.63;6.03;;;;;;;;;;6133781;23;20515;-85
2023/07/09 20:15:22;;;;;;;7.47;6.60;;;;;;;;;;6159275;23;20084;-84
2023/07/09 20:17:50;;;;;;;7.72;6.95;;;;;;;;;;6158990;23;20302;-84
2023/07/09 20:20:16;;;;;;;6.70;6.03;;;;;;;;;;6157027;23;20014;-85
2023/07/09 20:22:41;;;;;;;6.80;6.10;;;;;;;;;;6158233;23;20009;-85
2023/07/09 20:25:23;;;;;;;7.63;6.93;;;;;;;;;;6158459;23;20373;-84
2023/07/09 20:27:51;;;;;;;6.90;6.22;;;;;;;;;;6157947;23;20092;-85
2023/07/09 20:30:18;;;;;;;7.25;6.40;;;;;;;;;;6156541;23;20014;-84
2023/07/09 20:32:45;;;;;;;7.05;6.18;;;;;;;;;;6157938;23;20389;-85
2023/07/09 20:35:15;;;;;;;8.30;6.53;;;;;;;;;;6158254;23;20018;-85
2023/07/09 20:37:41;;;;;;;9.25;8.35;;;;;;;;;;6157911;23;20013;-84
2023/07/09 20:40:12;;;;;;;7.93;7.13;;;;;;;;;;6158120;23;20080;-84
2023/07/09 20:42:38;;;;;;;8.82;6.95;;;;;;;;;;6157972;23;20488;-84
2023/07/09 20:45:12;;;;;;;7.60;6.85;;;;;;;;;;6157732;23;20048;-85
2023/07/09 20:47:37;;;;;;;7.38;6.55;;;;;;;;;;6157988;23;19998;-84
2023/07/09 20:50:08;;;;;;;6.97;6.07;;;;;;;;;;6156394;23;20005;-86
2023/07/09 20:52:34;;;;;;;7.90;6.60;;;;;;;;;;6157663;23;20001;-84
2023/07/09 20:54:59;;;;;;;6.65;5.95;;;;;;;;;;6157723;23;20015;-86
2023/07/09 20:57:26;;;;;;;6.72;6.07;;;;;;;;;;6157833;23;20009;-85
2023/07/09 20:59:51;;;;;;;8.18;6.68;;;;;;;;;;6157921;23;20009;-85
2023/07/09 21:02:26;;;;;;;9.35;6.45;;;;;;;;;;6157495;23;20029;-85
2023/07/09 21:04:55;;;;;;;6.82;6.13;;;;;;;;;;6155970;23;20006;-84
2023/07/09 21:07:22;;;;;;;7.95;6.82;;;;;;;;;;6157961;23;20012;-85
2023/07/09 21:09:48;;;;;;;8.32;6.90;;;;;;;;;;6157764;23;20001;-85
2023/07/09 21:12:15;;;;;;;8.20;6.70;;;;;;;;;;6157424;23;20452;-85
2023/07/09 21:14:42;;;;;;;7.68;6.90;;;;;;;;;;6157717;23;20421;-85
2023/07/09 21:17:22;;;;;;;8.82;7.38;;;;;;;;;;6157769;23;20059;-85
2023/07/09 21:19:52;;;;;;;9.00;7.47;;;;;;;;;;6156114;23;20005;-85
2023/07/09 21:22:18;;;;;;;8.77;7.88;;;;;;;;;;6156891;23;20008;-85
2023/07/09 21:24:48;;;;;;;7.18;6.57;;;;;;;;;;6157606;23;20009;-86
2023/07/09 21:27:14;;;;;;;7.63;6.85;;;;;;;;;;6155943;23;20336;-86
2023/07/09 21:29:39;;;;;;;7.20;6.53;;;;;;;;;;6157560;23;20035;-86
2023/07/09 21:32:11;;;;;;;7.97;7.18;;;;;;;;;;6157412;23;20409;-86
2023/07/09 21:34:37;;;;;;;7.35;6.63;;;;;;;;;;6157704;23;20032;-86
2023/07/09 21:37:20;;;;;;;7.00;6.30;;;;;;;;;;6156022;23;20421;-86
2023/07/09 21:39:46;;;;;;;7.95;7.10;;;;;;;;;;6157421;23;20001;-86
2023/07/09 21:42:12;;;;;;;6.63;6.03;;;;;;;;;;6157582;23;20016;-86
2023/07/09 21:44:37;;;;;;;7.75;6.93;;;;;;;;;;6155810;23;20088;-86
2023/07/09 21:47:06;;;;;;;8.30;7.07;;;;;;;;;;6157441;23;20001;-88
